Aérodrome :
LOGIN :

S'inscrire | Disclaimer

   EN    FR    IT 

 










Légende :    VFR   VFR Marginal   IFR   IFR Intensif   IFR Très Intensif
Visi : 
Plafond : 
>= 8 km
>= 3000ft
5 à 8 km
1000 à 3000 ft
1500m à 5 km
500 à 1000 ft
800 à 1500m
200 à 500 ft
< 800m
< 200 ft
Symboles :   Orages  Brouillard  Fortes neiges  Fortes précipitations  Vent > 20 kt
SIGMETs :   Divers  Orages  Givrage  Turbulence  Onde Orograph.  Cendres Volcan.






- Altitude de l'aérodrome : 48 ft
- Code IATA : PSR


LIBP - Abruzzo Pescara

DERNIER METAR :
  • 140224Z AUTO 23003KT 2800 BR FEW230/// 14/14 Q1023

METARs EXPIRÉS :
  • 140208Z AUTO 24003KT 6000 FEW240/// 14/14 Q1023
  • 140124Z AUTO 22003KT 4800 BR NCD 14/14 Q1023
  • 140107Z AUTO 26003KT 8000 NCD 15/14 Q1023
  • 140030Z AUTO VRB01KT 4900 BR NCD 15/14 Q1023
  • 140018Z AUTO 18001KT 8000 NCD 15/15 Q1023
  • 140005Z AUTO VRB01KT 1800 R22/1400D BR NCD 15/15 Q1023

TAF TAF LIBP
Valide du 14 à 00h jusqu'au 15 à 00h UTC


132300Z 1400/1424 VRB05KT 9999 SCT015
TEMPO 1400/1406 4000 BR



MET'MAP, la Météo Aéronautique d'un coup d'oeil ! - Copyright ORBIFLY Décembre 2007 - Disclaimer

ORBIFLY MET'MAP TEAM :

Programmation & Développement : Alexandra Zaïnal
Conception & Développement : Baudouin d'Aumeries
Co-Programmation & Développement : Marc-Olivier Méhu
Soutien technique & logistique : Manuel Goepfert

Contact : metmap@orbifly.com




SOURCES & CREDITS :

   NOAA